createdAt,value
2023-05-03T00:03:34.788Z,10.60
2023-05-03T00:08:51.868Z,10.50
2023-05-03T00:14:07.531Z,10.50
2023-05-03T00:19:31.408Z,10.50
2023-05-03T00:24:47.711Z,10.50
2023-05-03T00:30:04.252Z,10.50
2023-05-03T00:35:20.520Z,10.50
2023-05-03T00:40:36.191Z,10.50
2023-05-03T00:45:52.594Z,10.60
2023-05-03T00:51:15.145Z,10.60
2023-05-03T00:56:38.021Z,10.40
2023-05-03T01:02:04.676Z,10.40
2023-05-03T01:07:43.527Z,10.20
2023-05-03T01:13:36.890Z,10.30
2023-05-03T01:18:55.568Z,10.40
2023-05-03T01:24:24.721Z,10.40
2023-05-03T01:29:40.711Z,10.40
2023-05-03T01:35:08.887Z,10.30
2023-05-03T01:40:29.071Z,10.30
2023-05-03T01:45:45.327Z,10.40
2023-05-03T01:51:01.985Z,10.40
2023-05-03T01:56:17.708Z,10.30
2023-05-03T02:01:33.638Z,10.30
2023-05-03T02:06:49.404Z,10.30
2023-05-03T02:12:05.633Z,10.30
2023-05-03T02:17:22.584Z,10.40
2023-05-03T02:22:38.152Z,10.40
2023-05-03T02:27:54.131Z,10.30
2023-05-03T02:33:10.150Z,10.20
2023-05-03T02:38:25.953Z,10.30
2023-05-03T02:43:41.674Z,10.30
2023-05-03T02:48:57.167Z,10.20
2023-05-03T02:54:13.097Z,10.20
2023-05-03T02:59:29.327Z,10.10
2023-05-03T03:04:45.067Z,10.10
2023-05-03T03:10:01.112Z,10.10
2023-05-03T03:15:17.328Z,10.20
2023-05-03T03:20:33.336Z,10.30
2023-05-03T03:25:49.233Z,10.30
2023-05-03T03:31:05.301Z,10.20
2023-05-03T03:36:21.240Z,10.20
2023-05-03T03:41:37.089Z,10.00
2023-05-03T03:46:53.091Z,10.00
2023-05-03T03:52:09.220Z,10.10
2023-05-03T03:57:26.387Z,10.00
2023-05-03T04:02:42.267Z,10.00
2023-05-03T04:07:58.544Z,10.10
2023-05-03T04:13:14.271Z,10.20
2023-05-03T04:18:30.258Z,10.30
2023-05-03T04:23:46.456Z,10.30
2023-05-03T04:29:02.905Z,10.40
2023-05-03T04:34:19.194Z,10.40
2023-05-03T04:39:34.574Z,10.40
2023-05-03T04:44:50.515Z,10.50
2023-05-03T04:50:08.930Z,10.50
2023-05-03T04:55:24.792Z,10.30
2023-05-03T05:00:43.511Z,10.50
2023-05-03T05:05:59.308Z,10.50
2023-05-03T05:11:15.074Z,10.50
2023-05-03T05:16:31.027Z,10.50
2023-05-03T05:21:46.559Z,10.60
2023-05-03T05:27:03.287Z,10.70
2023-05-03T05:32:19.028Z,10.80
2023-05-03T05:37:35.080Z,10.90
2023-05-03T05:42:51.116Z,10.90
2023-05-03T05:48:07.004Z,11.00
2023-05-03T05:53:24.119Z,11.10
2023-05-03T05:58:40.649Z,11.10
2023-05-03T06:03:56.739Z,11.20
2023-05-03T06:09:23.398Z,11.20
2023-05-03T06:14:46.179Z,11.10
2023-05-03T06:20:05.330Z,11.20
2023-05-03T06:25:21.627Z,11.20
2023-05-03T06:30:37.561Z,11.40
2023-05-03T06:35:54.156Z,11.60
2023-05-03T06:41:09.908Z,11.40
2023-05-03T06:46:27.852Z,11.50
2023-05-03T06:51:43.785Z,11.60
2023-05-03T06:56:59.353Z,11.80
2023-05-03T07:02:15.350Z,11.80
2023-05-03T07:07:31.157Z,11.90
2023-05-03T07:12:46.747Z,12.20
2023-05-03T07:18:03.496Z,12.40
2023-05-03T07:23:20.062Z,12.30
2023-05-03T07:28:35.944Z,12.30
2023-05-03T07:33:51.949Z,12.30
2023-05-03T07:39:08.041Z,12.20
2023-05-03T07:44:23.848Z,12.50
2023-05-03T07:49:39.836Z,12.60
2023-05-03T07:54:55.539Z,12.60
2023-05-03T08:00:12.680Z,12.50
2023-05-03T08:05:28.506Z,12.50
2023-05-03T08:10:44.386Z,12.70
2023-05-03T08:16:00.486Z,12.90
2023-05-03T08:21:17.754Z,12.70
2023-05-03T08:26:34.434Z,12.60
2023-05-03T08:31:51.565Z,12.80
2023-05-03T08:37:07.694Z,12.70
2023-05-03T08:42:25.759Z,12.80
2023-05-03T08:47:45.200Z,12.90
2023-05-03T08:53:01.393Z,13.00
2023-05-03T08:58:17.545Z,13.20
2023-05-03T09:03:35.196Z,13.40
2023-05-03T09:08:50.923Z,13.60
2023-05-03T09:14:12.641Z,13.60
2023-05-03T09:19:28.356Z,13.70
2023-05-03T09:24:54.008Z,13.90
2023-05-03T09:30:19.889Z,13.90
2023-05-03T09:35:36.074Z,13.60
2023-05-03T09:40:51.718Z,13.40
2023-05-03T09:46:12.451Z,13.80
2023-05-03T09:51:29.289Z,14.10
2023-05-03T09:56:47.583Z,14.20
2023-05-03T10:02:07.856Z,13.90
2023-05-03T10:07:26.606Z,13.90
2023-05-03T10:12:42.912Z,13.90
2023-05-03T10:18:03.803Z,13.90
2023-05-03T10:23:19.433Z,14.10
2023-05-03T10:28:35.798Z,14.10
2023-05-03T10:33:52.862Z,14.00
2023-05-03T10:39:15.234Z,14.20
2023-05-03T10:44:49.494Z,14.00
2023-05-03T10:50:17.378Z,13.90
2023-05-03T10:55:33.570Z,13.80
2023-05-03T11:00:51.754Z,14.00
2023-05-03T11:06:07.706Z,13.90
2023-05-03T11:11:24.089Z,14.00
2023-05-03T11:16:48.237Z,14.00
2023-05-03T11:22:04.575Z,13.80
2023-05-03T11:27:26.937Z,13.80
2023-05-03T11:32:44.084Z,13.60
2023-05-03T11:38:00.144Z,13.60
2023-05-03T11:43:16.007Z,13.60
2023-05-03T11:48:33.563Z,13.50
2023-05-03T11:53:50.448Z,13.60
2023-05-03T11:59:06.201Z,13.60
2023-05-03T12:04:24.054Z,13.50
2023-05-03T12:09:41.719Z,13.40
2023-05-03T12:15:04.077Z,13.40
2023-05-03T12:25:44.456Z,13.60
2023-05-03T12:31:02.317Z,13.50
2023-05-03T12:36:21.276Z,13.40
2023-05-03T12:46:55.696Z,13.50
2023-05-03T12:52:36.218Z,13.50
2023-05-03T12:57:56.153Z,13.50
2023-05-03T13:03:31.994Z,13.70
2023-05-03T13:08:50.823Z,13.90
2023-05-03T13:14:07.685Z,13.70
2023-05-03T13:19:23.701Z,13.80
2023-05-03T13:24:41.560Z,13.60
2023-05-03T13:29:57.260Z,13.40
2023-05-03T13:35:13.596Z,13.70
2023-05-03T13:40:29.867Z,14.10
2023-05-03T13:45:45.909Z,14.50
2023-05-03T13:51:08.760Z,14.80
2023-05-03T13:56:24.357Z,14.90
2023-05-03T14:01:41.493Z,14.70
2023-05-03T14:06:59.212Z,14.50
2023-05-03T14:12:14.848Z,14.40
2023-05-03T14:17:30.901Z,14.00
2023-05-03T14:22:47.084Z,13.80
2023-05-03T14:28:02.717Z,13.50
2023-05-03T14:33:18.842Z,13.40
2023-05-03T14:38:35.604Z,13.30
2023-05-03T14:43:51.259Z,13.30
2023-05-03T14:49:07.481Z,13.30
2023-05-03T14:54:23.396Z,13.40
2023-05-03T14:59:39.378Z,13.30
2023-05-03T15:04:55.657Z,13.30
2023-05-03T15:10:11.757Z,13.40
2023-05-03T15:15:27.350Z,13.40
2023-05-03T15:20:43.255Z,13.30
2023-05-03T15:25:59.285Z,13.20
2023-05-03T15:31:17.868Z,13.00
2023-05-03T15:36:37.422Z,12.80
2023-05-03T15:41:53.171Z,12.60
2023-05-03T15:47:09.234Z,12.60
2023-05-03T15:52:25.180Z,12.50
2023-05-03T15:57:41.411Z,12.50
2023-05-03T16:02:58.311Z,12.50
2023-05-03T16:08:14.655Z,12.50
2023-05-03T16:13:30.940Z,12.60
2023-05-03T16:18:46.919Z,12.50
2023-05-03T16:24:02.264Z,12.40
2023-05-03T16:29:18.410Z,12.50
2023-05-03T16:34:34.279Z,12.50
2023-05-03T16:39:50.080Z,12.60
2023-05-03T16:45:16.232Z,12.40
2023-05-03T16:50:31.682Z,12.60
2023-05-03T16:55:47.939Z,12.70
2023-05-03T17:01:04.254Z,12.60
2023-05-03T17:06:20.502Z,12.50
2023-05-03T17:11:36.621Z,12.40
2023-05-03T17:16:52.754Z,12.40
2023-05-03T17:22:08.829Z,12.30
2023-05-03T17:27:24.887Z,12.10
2023-05-03T17:32:41.020Z,12.10
2023-05-03T17:37:57.325Z,12.10
2023-05-03T17:43:13.988Z,12.10
2023-05-03T17:48:29.912Z,12.00
2023-05-03T17:53:45.501Z,12.00
2023-05-03T17:59:02.123Z,11.90
2023-05-03T18:04:17.709Z,11.90
2023-05-03T18:09:33.897Z,11.80
2023-05-03T18:14:49.459Z,11.70
2023-05-03T18:20:06.826Z,11.80
2023-05-03T18:25:22.867Z,11.80
2023-05-03T18:30:38.704Z,11.70
2023-05-03T18:35:54.737Z,11.60
2023-05-03T18:41:16.825Z,11.60
2023-05-03T18:46:32.902Z,11.40
2023-05-03T18:51:49.903Z,11.30
2023-05-03T18:57:05.685Z,11.40
2023-05-03T19:02:21.681Z,11.30
2023-05-03T19:07:37.857Z,11.40
2023-05-03T19:12:54.091Z,11.30
2023-05-03T19:18:10.194Z,11.30
2023-05-03T19:23:25.925Z,11.30
2023-05-03T19:28:41.861Z,11.40
2023-05-03T19:33:57.910Z,11.30
2023-05-03T19:39:13.984Z,11.30
2023-05-03T19:44:30.877Z,11.50
2023-05-03T19:49:46.879Z,11.50
2023-05-03T19:55:03.694Z,11.30
2023-05-03T20:00:21.391Z,11.30
2023-05-03T20:05:37.400Z,11.20
2023-05-03T20:10:55.783Z,11.10
2023-05-03T20:16:12.530Z,11.20
2023-05-03T20:21:28.651Z,11.30
2023-05-03T20:26:44.653Z,11.20
2023-05-03T20:32:01.275Z,11.10
2023-05-03T20:37:17.267Z,11.00
2023-05-03T20:42:33.804Z,11.10
2023-05-03T20:47:49.673Z,11.20
2023-05-03T20:53:06.105Z,11.20
2023-05-03T20:58:21.626Z,11.10
2023-05-03T21:03:37.577Z,10.90
2023-05-03T21:08:53.384Z,11.00
2023-05-03T21:14:10.979Z,11.10
2023-05-03T21:19:26.724Z,11.00
2023-05-03T21:24:42.832Z,11.00
2023-05-03T21:29:58.620Z,11.00
2023-05-03T21:35:14.590Z,10.90
2023-05-03T21:40:30.585Z,10.90
2023-05-03T21:45:48.478Z,10.90
2023-05-03T21:51:04.803Z,10.90
2023-05-03T21:56:20.584Z,10.80
2023-05-03T22:01:36.283Z,10.80
2023-05-03T22:06:53.053Z,10.70
2023-05-03T22:12:22.287Z,10.70
2023-05-03T22:17:39.437Z,10.60
2023-05-03T22:22:55.528Z,10.70
2023-05-03T22:28:11.711Z,10.80
2023-05-03T22:33:27.622Z,10.70
2023-05-03T22:38:43.816Z,10.70
2023-05-03T22:43:59.751Z,10.60
2023-05-03T22:49:15.791Z,10.40
2023-05-03T22:54:31.636Z,10.20
2023-05-03T22:59:47.480Z,10.20
2023-05-03T23:05:03.549Z,10.30
2023-05-03T23:10:19.602Z,10.30
2023-05-03T23:15:37.082Z,10.40
2023-05-03T23:20:53.758Z,10.40
2023-05-03T23:26:09.465Z,10.50
2023-05-03T23:31:26.127Z,10.50
2023-05-03T23:36:43.105Z,10.50
2023-05-03T23:41:59.043Z,10.50
2023-05-03T23:47:14.612Z,10.60
2023-05-03T23:52:30.588Z,10.60
2023-05-03T23:57:46.488Z,10.50
